sensor_id;sensor_type;location;lat;lon;timestamp;P1;durP1;ratioP1;P2;durP2;ratioP2
65172;SDS011;51758;52.218;5.172;2023-01-16T00:00:14;7.37;;;4.10;;
65172;SDS011;51758;52.218;5.172;2023-01-16T00:05:10;6.90;;;3.83;;
65172;SDS011;51758;52.218;5.172;2023-01-16T00:07:38;6.23;;;3.83;;
65172;SDS011;51758;52.218;5.172;2023-01-16T00:10:06;8.57;;;4.00;;
65172;SDS011;51758;52.218;5.172;2023-01-16T00:12:36;6.63;;;3.63;;
65172;SDS011;51758;52.218;5.172;2023-01-16T00:15:04;5.63;;;3.97;;
65172;SDS011;51758;52.218;5.172;2023-01-16T00:17:32;6.47;;;3.97;;
65172;SDS011;51758;52.218;5.172;2023-01-16T00:20:00;8.27;;;4.00;;
65172;SDS011;51758;52.218;5.172;2023-01-16T00:22:27;5.37;;;4.30;;
65172;SDS011;51758;52.218;5.172;2023-01-16T00:24:55;5.37;;;4.20;;
65172;SDS011;51758;52.218;5.172;2023-01-16T00:27:23;6.03;;;4.50;;
65172;SDS011;51758;52.218;5.172;2023-01-16T00:29:52;9.00;;;4.43;;
65172;SDS011;51758;52.218;5.172;2023-01-16T00:32:19;6.90;;;4.67;;
65172;SDS011;51758;52.218;5.172;2023-01-16T00:34:47;7.83;;;5.27;;
65172;SDS011;51758;52.218;5.172;2023-01-16T00:37:15;7.77;;;5.23;;
65172;SDS011;51758;52.218;5.172;2023-01-16T00:39:42;8.33;;;5.83;;
65172;SDS011;51758;52.218;5.172;2023-01-16T00:42:10;8.67;;;5.70;;
65172;SDS011;51758;52.218;5.172;2023-01-16T00:44:38;8.70;;;6.60;;
65172;SDS011;51758;52.218;5.172;2023-01-16T00:47:07;10.47;;;6.43;;
65172;SDS011;51758;52.218;5.172;2023-01-16T00:49:35;12.67;;;8.20;;
65172;SDS011;51758;52.218;5.172;2023-01-16T00:52:03;12.83;;;7.73;;
65172;SDS011;51758;52.218;5.172;2023-01-16T00:54:32;10.80;;;7.80;;
65172;SDS011;51758;52.218;5.172;2023-01-16T00:57:00;12.03;;;8.57;;
65172;SDS011;51758;52.218;5.172;2023-01-16T00:59:27;12.80;;;8.50;;
65172;SDS011;51758;52.218;5.172;2023-01-16T01:01:55;13.90;;;8.87;;
65172;SDS011;51758;52.218;5.172;2023-01-16T01:04:24;14.35;;;9.35;;
65172;SDS011;51758;52.218;5.172;2023-01-16T01:06:52;14.67;;;9.63;;
65172;SDS011;51758;52.218;5.172;2023-01-16T01:09:20;14.27;;;9.70;;
65172;SDS011;51758;52.218;5.172;2023-01-16T01:11:47;15.80;;;10.13;;
65172;SDS011;51758;52.218;5.172;2023-01-16T01:14:15;13.70;;;10.17;;
65172;SDS011;51758;52.218;5.172;2023-01-16T01:16:43;15.30;;;10.63;;
65172;SDS011;51758;52.218;5.172;2023-01-16T01:19:10;23.10;;;12.63;;
65172;SDS011;51758;52.218;5.172;2023-01-16T01:21:40;19.17;;;12.15;;
65172;SDS011;51758;52.218;5.172;2023-01-16T01:24:07;20.10;;;13.03;;
65172;SDS011;51758;52.218;5.172;2023-01-16T01:26:35;22.60;;;12.90;;
65172;SDS011;51758;52.218;5.172;2023-01-16T01:29:03;19.23;;;14.07;;
65172;SDS011;51758;52.218;5.172;2023-01-16T01:31:31;20.35;;;12.98;;
65172;SDS011;51758;52.218;5.172;2023-01-16T01:33:58;16.13;;;11.30;;
65172;SDS011;51758;52.218;5.172;2023-01-16T01:36:26;21.00;;;12.70;;
65172;SDS011;51758;52.218;5.172;2023-01-16T01:38:55;18.37;;;11.90;;
65172;SDS011;51758;52.218;5.172;2023-01-16T01:41:23;18.00;;;11.67;;
65172;SDS011;51758;52.218;5.172;2023-01-16T01:43:52;18.10;;;11.10;;
65172;SDS011;51758;52.218;5.172;2023-01-16T01:46:21;21.30;;;12.37;;
65172;SDS011;51758;52.218;5.172;2023-01-16T01:48:53;19.70;;;11.90;;
65172;SDS011;51758;52.218;5.172;2023-01-16T01:51:25;20.67;;;11.67;;
65172;SDS011;51758;52.218;5.172;2023-01-16T01:53:59;24.17;;;12.50;;
65172;SDS011;51758;52.218;5.172;2023-01-16T01:56:32;21.90;;;12.80;;
65172;SDS011;51758;52.218;5.172;2023-01-16T01:59:05;18.27;;;11.47;;
65172;SDS011;51758;52.218;5.172;2023-01-16T02:01:37;19.87;;;11.33;;
65172;SDS011;51758;52.218;5.172;2023-01-16T02:06:37;17.70;;;12.17;;
65172;SDS011;51758;52.218;5.172;2023-01-16T02:09:11;24.00;;;11.80;;
65172;SDS011;51758;52.218;5.172;2023-01-16T02:11:41;21.33;;;11.77;;
65172;SDS011;51758;52.218;5.172;2023-01-16T02:14:16;18.87;;;10.40;;
65172;SDS011;51758;52.218;5.172;2023-01-16T02:16:45;21.63;;;11.77;;
65172;SDS011;51758;52.218;5.172;2023-01-16T02:19:34;21.97;;;11.77;;
65172;SDS011;51758;52.218;5.172;2023-01-16T02:22:19;20.90;;;10.87;;
65172;SDS011;51758;52.218;5.172;2023-01-16T02:25:35;19.23;;;11.07;;
65172;SDS011;51758;52.218;5.172;2023-01-16T02:28:33;24.40;;;11.30;;
65172;SDS011;51758;52.218;5.172;2023-01-16T02:31:33;19.83;;;10.57;;
65172;SDS011;51758;52.218;5.172;2023-01-16T02:34:19;16.63;;;10.00;;
65172;SDS011;51758;52.218;5.172;2023-01-16T02:37:03;19.27;;;10.50;;
65172;SDS011;51758;52.218;5.172;2023-01-16T02:39:41;17.17;;;10.45;;
65172;SDS011;51758;52.218;5.172;2023-01-16T02:42:16;16.97;;;11.03;;
65172;SDS011;51758;52.218;5.172;2023-01-16T02:44:53;14.23;;;9.50;;
65172;SDS011;51758;52.218;5.172;2023-01-16T02:47:29;18.30;;;11.70;;
65172;SDS011;51758;52.218;5.172;2023-01-16T02:50:05;17.63;;;10.87;;
65172;SDS011;51758;52.218;5.172;2023-01-16T02:52:39;20.23;;;12.37;;
65172;SDS011;51758;52.218;5.172;2023-01-16T02:55:12;19.03;;;10.80;;
65172;SDS011;51758;52.218;5.172;2023-01-16T02:57:49;15.50;;;11.10;;
65172;SDS011;51758;52.218;5.172;2023-01-16T03:00:21;19.97;;;11.60;;
65172;SDS011;51758;52.218;5.172;2023-01-16T03:02:51;20.23;;;11.50;;
65172;SDS011;51758;52.218;5.172;2023-01-16T03:05:19;20.53;;;11.07;;
65172;SDS011;51758;52.218;5.172;2023-01-16T03:07:54;19.40;;;10.75;;
65172;SDS011;51758;52.218;5.172;2023-01-16T03:13:55;16.43;;;9.27;;
65172;SDS011;51758;52.218;5.172;2023-01-16T03:16:33;15.73;;;9.97;;
65172;SDS011;51758;52.218;5.172;2023-01-16T03:19:14;14.20;;;8.43;;
65172;SDS011;51758;52.218;5.172;2023-01-16T03:21:53;15.77;;;7.73;;
65172;SDS011;51758;52.218;5.172;2023-01-16T03:24:36;14.43;;;7.73;;
65172;SDS011;51758;52.218;5.172;2023-01-16T03:27:17;14.10;;;6.70;;
65172;SDS011;51758;52.218;5.172;2023-01-16T03:29:54;13.70;;;6.80;;
65172;SDS011;51758;52.218;5.172;2023-01-16T03:32:29;11.53;;;5.93;;
65172;SDS011;51758;52.218;5.172;2023-01-16T03:35:03;12.97;;;5.97;;
65172;SDS011;51758;52.218;5.172;2023-01-16T03:37:37;10.60;;;5.10;;
65172;SDS011;51758;52.218;5.172;2023-01-16T03:40:09;10.97;;;4.70;;
65172;SDS011;51758;52.218;5.172;2023-01-16T03:42:40;12.10;;;4.80;;
65172;SDS011;51758;52.218;5.172;2023-01-16T03:45:11;10.83;;;4.57;;
65172;SDS011;51758;52.218;5.172;2023-01-16T03:47:45;7.30;;;3.73;;
65172;SDS011;51758;52.218;5.172;2023-01-16T03:50:18;9.03;;;3.73;;
65172;SDS011;51758;52.218;5.172;2023-01-16T03:52:51;8.23;;;3.60;;
65172;SDS011;51758;52.218;5.172;2023-01-16T03:55:24;8.03;;;3.07;;
65172;SDS011;51758;52.218;5.172;2023-01-16T03:57:58;7.70;;;3.37;;
65172;SDS011;51758;52.218;5.172;2023-01-16T04:00:32;11.33;;;3.67;;
65172;SDS011;51758;52.218;5.172;2023-01-16T04:03:08;12.30;;;3.77;;
65172;SDS011;51758;52.218;5.172;2023-01-16T04:05:43;5.97;;;2.57;;
65172;SDS011;51758;52.218;5.172;2023-01-16T04:08:18;8.00;;;2.83;;
65172;SDS011;51758;52.218;5.172;2023-01-16T04:10:52;8.57;;;3.00;;
65172;SDS011;51758;52.218;5.172;2023-01-16T04:13:21;7.75;;;2.53;;
65172;SDS011;51758;52.218;5.172;2023-01-16T04:15:54;12.27;;;3.13;;
65172;SDS011;51758;52.218;5.172;2023-01-16T04:18:25;7.93;;;2.63;;
65172;SDS011;51758;52.218;5.172;2023-01-16T04:20:59;6.80;;;2.80;;
65172;SDS011;51758;52.218;5.172;2023-01-16T04:23:27;10.83;;;2.97;;
65172;SDS011;51758;52.218;5.172;2023-01-16T04:25:54;6.47;;;2.60;;
65172;SDS011;51758;52.218;5.172;2023-01-16T04:28:22;8.37;;;2.97;;
65172;SDS011;51758;52.218;5.172;2023-01-16T04:30:50;12.00;;;2.70;;
65172;SDS011;51758;52.218;5.172;2023-01-16T04:33:17;6.47;;;2.57;;
65172;SDS011;51758;52.218;5.172;2023-01-16T04:35:45;7.23;;;2.40;;
65172;SDS011;51758;52.218;5.172;2023-01-16T04:38:14;7.40;;;2.87;;
65172;SDS011;51758;52.218;5.172;2023-01-16T04:40:42;9.13;;;2.80;;
65172;SDS011;51758;52.218;5.172;2023-01-16T04:43:10;5.30;;;2.50;;
65172;SDS011;51758;52.218;5.172;2023-01-16T04:45:37;7.17;;;2.93;;
65172;SDS011;51758;52.218;5.172;2023-01-16T04:48:06;9.30;;;2.70;;
65172;SDS011;51758;52.218;5.172;2023-01-16T04:50:34;6.97;;;2.20;;
65172;SDS011;51758;52.218;5.172;2023-01-16T04:53:02;8.30;;;2.47;;
65172;SDS011;51758;52.218;5.172;2023-01-16T04:55:31;10.40;;;3.27;;
65172;SDS011;51758;52.218;5.172;2023-01-16T04:57:59;9.00;;;2.20;;
65172;SDS011;51758;52.218;5.172;2023-01-16T05:00:26;6.80;;;2.43;;
65172;SDS011;51758;52.218;5.172;2023-01-16T05:02:54;8.37;;;2.30;;
65172;SDS011;51758;52.218;5.172;2023-01-16T05:05:22;7.63;;;2.13;;
65172;SDS011;51758;52.218;5.172;2023-01-16T05:07:49;7.80;;;2.20;;
65172;SDS011;51758;52.218;5.172;2023-01-16T05:10:39;7.38;;;2.30;;
65172;SDS011;51758;52.218;5.172;2023-01-16T05:13:06;5.23;;;2.03;;
65172;SDS011;51758;52.218;5.172;2023-01-16T05:15:34;6.77;;;1.90;;
65172;SDS011;51758;52.218;5.172;2023-01-16T05:18:02;5.23;;;1.97;;
65172;SDS011;51758;52.218;5.172;2023-01-16T05:20:31;7.90;;;2.10;;
65172;SDS011;51758;52.218;5.172;2023-01-16T05:22:58;7.60;;;1.77;;
65172;SDS011;51758;52.218;5.172;2023-01-16T05:25:26;7.63;;;2.17;;
65172;SDS011;51758;52.218;5.172;2023-01-16T05:27:55;6.13;;;2.00;;
65172;SDS011;51758;52.218;5.172;2023-01-16T05:30:23;8.33;;;2.00;;
65172;SDS011;51758;52.218;5.172;2023-01-16T05:32:51;9.13;;;2.17;;
65172;SDS011;51758;52.218;5.172;2023-01-16T05:35:18;9.10;;;2.40;;
65172;SDS011;51758;52.218;5.172;2023-01-16T05:37:46;10.50;;;2.90;;
65172;SDS011;51758;52.218;5.172;2023-01-16T05:40:14;8.03;;;2.43;;
65172;SDS011;51758;52.218;5.172;2023-01-16T05:42:42;6.80;;;2.80;;
65172;SDS011;51758;52.218;5.172;2023-01-16T05:45:12;7.30;;;2.47;;
65172;SDS011;51758;52.218;5.172;2023-01-16T05:47:39;6.10;;;1.87;;
65172;SDS011;51758;52.218;5.172;2023-01-16T05:50:08;7.73;;;2.20;;
65172;SDS011;51758;52.218;5.172;2023-01-16T05:55:04;6.17;;;2.07;;
65172;SDS011;51758;52.218;5.172;2023-01-16T05:57:32;7.75;;;2.25;;
65172;SDS011;51758;52.218;5.172;2023-01-16T06:00:00;9.33;;;2.30;;
65172;SDS011;51758;52.218;5.172;2023-01-16T06:02:29;7.07;;;2.05;;
65172;SDS011;51758;52.218;5.172;2023-01-16T06:04:57;10.07;;;2.40;;
65172;SDS011;51758;52.218;5.172;2023-01-16T06:07:25;5.78;;;2.05;;
65172;SDS011;51758;52.218;5.172;2023-01-16T06:09:53;7.27;;;2.07;;
65172;SDS011;51758;52.218;5.172;2023-01-16T06:12:21;9.25;;;2.58;;
65172;SDS011;51758;52.218;5.172;2023-01-16T06:14:48;8.93;;;2.72;;
65172;SDS011;51758;52.218;5.172;2023-01-16T06:17:16;12.50;;;2.50;;
65172;SDS011;51758;52.218;5.172;2023-01-16T06:19:46;13.77;;;3.55;;
65172;SDS011;51758;52.218;5.172;2023-01-16T06:22:14;8.97;;;2.77;;
65172;SDS011;51758;52.218;5.172;2023-01-16T06:24:41;8.20;;;2.37;;
65172;SDS011;51758;52.218;5.172;2023-01-16T06:27:09;8.90;;;2.47;;
65172;SDS011;51758;52.218;5.172;2023-01-16T06:29:37;7.30;;;2.60;;
65172;SDS011;51758;52.218;5.172;2023-01-16T06:32:05;3.53;;;2.08;;
65172;SDS011;51758;52.218;5.172;2023-01-16T06:34:32;10.93;;;2.83;;
65172;SDS011;51758;52.218;5.172;2023-01-16T06:37:03;7.93;;;2.33;;
65172;SDS011;51758;52.218;5.172;2023-01-16T06:39:31;9.60;;;3.07;;
65172;SDS011;51758;52.218;5.172;2023-01-16T06:41:59;10.45;;;2.60;;
65172;SDS011;51758;52.218;5.172;2023-01-16T06:44:26;7.70;;;2.37;;
65172;SDS011;51758;52.218;5.172;2023-01-16T06:46:54;10.07;;;2.60;;
65172;SDS011;51758;52.218;5.172;2023-01-16T06:49:22;12.43;;;3.03;;
65172;SDS011;51758;52.218;5.172;2023-01-16T06:51:49;10.70;;;3.13;;
65172;SDS011;51758;52.218;5.172;2023-01-16T06:54:18;8.50;;;3.40;;
65172;SDS011;51758;52.218;5.172;2023-01-16T06:56:46;12.87;;;3.10;;
65172;SDS011;51758;52.218;5.172;2023-01-16T06:59:14;9.53;;;3.10;;
65172;SDS011;51758;52.218;5.172;2023-01-16T07:01:42;13.17;;;3.20;;
65172;SDS011;51758;52.218;5.172;2023-01-16T07:04:09;8.37;;;3.33;;
65172;SDS011;51758;52.218;5.172;2023-01-16T07:06:37;7.27;;;2.83;;
65172;SDS011;51758;52.218;5.172;2023-01-16T07:09:05;10.38;;;3.45;;
65172;SDS011;51758;52.218;5.172;2023-01-16T07:11:34;9.40;;;3.10;;
65172;SDS011;51758;52.218;5.172;2023-01-16T07:14:02;14.50;;;3.83;;
65172;SDS011;51758;52.218;5.172;2023-01-16T07:16:47;9.13;;;3.20;;
65172;SDS011;51758;52.218;5.172;2023-01-16T07:19:33;9.27;;;3.00;;
65172;SDS011;51758;52.218;5.172;2023-01-16T07:22:27;9.83;;;2.87;;
65172;SDS011;51758;52.218;5.172;2023-01-16T07:25:06;7.60;;;2.65;;
65172;SDS011;51758;52.218;5.172;2023-01-16T07:27:38;6.73;;;2.30;;
65172;SDS011;51758;52.218;5.172;2023-01-16T07:30:07;9.07;;;2.73;;
65172;SDS011;51758;52.218;5.172;2023-01-16T07:32:36;5.27;;;2.60;;
65172;SDS011;51758;52.218;5.172;2023-01-16T07:35:04;10.30;;;2.55;;
65172;SDS011;51758;52.218;5.172;2023-01-16T07:37:33;5.57;;;2.47;;
65172;SDS011;51758;52.218;5.172;2023-01-16T07:40:01;9.30;;;3.03;;
65172;SDS011;51758;52.218;5.172;2023-01-16T07:44:59;5.70;;;2.60;;
65172;SDS011;51758;52.218;5.172;2023-01-16T07:47:26;9.17;;;2.80;;
65172;SDS011;51758;52.218;5.172;2023-01-16T07:49:54;11.47;;;2.90;;
65172;SDS011;51758;52.218;5.172;2023-01-16T07:52:23;7.95;;;3.30;;
65172;SDS011;51758;52.218;5.172;2023-01-16T07:54:50;7.53;;;2.90;;
65172;SDS011;51758;52.218;5.172;2023-01-16T07:57:18;12.70;;;2.77;;
65172;SDS011;51758;52.218;5.172;2023-01-16T07:59:46;3.33;;;2.30;;
65172;SDS011;51758;52.218;5.172;2023-01-16T08:02:15;6.77;;;2.50;;
65172;SDS011;51758;52.218;5.172;2023-01-16T08:04:42;9.27;;;3.90;;
65172;SDS011;51758;52.218;5.172;2023-01-16T08:07:10;4.67;;;2.50;;
65172;SDS011;51758;52.218;5.172;2023-01-16T08:09:38;6.03;;;2.73;;
65172;SDS011;51758;52.218;5.172;2023-01-16T08:12:05;6.83;;;3.20;;
65172;SDS011;51758;52.218;5.172;2023-01-16T08:14:33;6.30;;;2.53;;
65172;SDS011;51758;52.218;5.172;2023-01-16T08:17:01;4.37;;;2.80;;
65172;SDS011;51758;52.218;5.172;2023-01-16T08:19:30;7.90;;;3.20;;
65172;SDS011;51758;52.218;5.172;2023-01-16T08:21:57;6.23;;;3.60;;
65172;SDS011;51758;52.218;5.172;2023-01-16T08:24:25;7.07;;;3.13;;
65172;SDS011;51758;52.218;5.172;2023-01-16T08:26:53;6.87;;;3.30;;
65172;SDS011;51758;52.218;5.172;2023-01-16T08:29:21;9.00;;;3.45;;
65172;SDS011;51758;52.218;5.172;2023-01-16T08:31:48;6.70;;;3.70;;
65172;SDS011;51758;52.218;5.172;2023-01-16T08:34:16;8.67;;;3.53;;
65172;SDS011;51758;52.218;5.172;2023-01-16T08:36:45;7.63;;;4.00;;
65172;SDS011;51758;52.218;5.172;2023-01-16T08:39:13;8.83;;;4.17;;
65172;SDS011;51758;52.218;5.172;2023-01-16T08:41:41;8.67;;;4.00;;
65172;SDS011;51758;52.218;5.172;2023-01-16T08:44:26;9.27;;;4.80;;
65172;SDS011;51758;52.218;5.172;2023-01-16T08:47:12;7.93;;;4.17;;
65172;SDS011;51758;52.218;5.172;2023-01-16T08:50:03;9.13;;;4.80;;
65172;SDS011;51758;52.218;5.172;2023-01-16T08:52:51;6.63;;;4.80;;
65172;SDS011;51758;52.218;5.172;2023-01-16T08:55:18;9.67;;;4.77;;
65172;SDS011;51758;52.218;5.172;2023-01-16T08:57:46;9.40;;;5.22;;
65172;SDS011;51758;52.218;5.172;2023-01-16T09:00:14;11.50;;;5.30;;
65172;SDS011;51758;52.218;5.172;2023-01-16T09:02:42;11.68;;;5.88;;
65172;SDS011;51758;52.218;5.172;2023-01-16T09:05:11;11.67;;;5.27;;
65172;SDS011;51758;52.218;5.172;2023-01-16T09:07:40;10.52;;;5.50;;
65172;SDS011;51758;52.218;5.172;2023-01-16T09:10:10;7.57;;;4.80;;
65172;SDS011;51758;52.218;5.172;2023-01-16T09:12:39;8.60;;;5.40;;
65172;SDS011;51758;52.218;5.172;2023-01-16T09:15:25;8.17;;;5.03;;
65172;SDS011;51758;52.218;5.172;2023-01-16T09:17:53;8.13;;;5.03;;
65172;SDS011;51758;52.218;5.172;2023-01-16T09:20:20;8.68;;;5.05;;
65172;SDS011;51758;52.218;5.172;2023-01-16T09:22:48;7.40;;;4.63;;
65172;SDS011;51758;52.218;5.172;2023-01-16T09:25:24;8.47;;;5.47;;
65172;SDS011;51758;52.218;5.172;2023-01-16T09:27:52;9.67;;;5.40;;
65172;SDS011;51758;52.218;5.172;2023-01-16T09:30:19;8.67;;;5.43;;
65172;SDS011;51758;52.218;5.172;2023-01-16T09:32:47;12.18;;;5.95;;
65172;SDS011;51758;52.218;5.172;2023-01-16T09:35:15;11.80;;;5.87;;
65172;SDS011;51758;52.218;5.172;2023-01-16T09:37:43;8.00;;;5.35;;
65172;SDS011;51758;52.218;5.172;2023-01-16T09:40:11;7.93;;;5.40;;
65172;SDS011;51758;52.218;5.172;2023-01-16T09:42:47;8.13;;;5.83;;
65172;SDS011;51758;52.218;5.172;2023-01-16T09:45:39;8.77;;;5.53;;
65172;SDS011;51758;52.218;5.172;2023-01-16T09:48:10;7.93;;;5.00;;
65172;SDS011;51758;52.218;5.172;2023-01-16T09:50:43;8.63;;;5.17;;
65172;SDS011;51758;52.218;5.172;2023-01-16T09:53:15;9.53;;;5.47;;
65172;SDS011;51758;52.218;5.172;2023-01-16T09:56:04;9.67;;;5.40;;
65172;SDS011;51758;52.218;5.172;2023-01-16T10:01:26;10.67;;;5.70;;
65172;SDS011;51758;52.218;5.172;2023-01-16T10:04:04;7.20;;;5.23;;
65172;SDS011;51758;52.218;5.172;2023-01-16T10:06:44;9.33;;;6.00;;
65172;SDS011;51758;52.218;5.172;2023-01-16T10:09:20;8.43;;;5.53;;
65172;SDS011;51758;52.218;5.172;2023-01-16T10:11:57;8.30;;;5.47;;
65172;SDS011;51758;52.218;5.172;2023-01-16T10:14:33;6.10;;;4.50;;
65172;SDS011;51758;52.218;5.172;2023-01-16T10:17:18;5.97;;;4.93;;
65172;SDS011;51758;52.218;5.172;2023-01-16T10:19:56;7.47;;;4.90;;
65172;SDS011;51758;52.218;5.172;2023-01-16T10:22:42;4.90;;;3.47;;
65172;SDS011;51758;52.218;5.172;2023-01-16T10:25:21;7.83;;;4.40;;
65172;SDS011;51758;52.218;5.172;2023-01-16T10:27:56;7.57;;;4.83;;
65172;SDS011;51758;52.218;5.172;2023-01-16T10:30:34;9.27;;;4.57;;
65172;SDS011;51758;52.218;5.172;2023-01-16T10:33:06;6.33;;;4.27;;
65172;SDS011;51758;52.218;5.172;2023-01-16T10:35:41;6.77;;;4.00;;
65172;SDS011;51758;52.218;5.172;2023-01-16T10:38:18;5.60;;;3.60;;
65172;SDS011;51758;52.218;5.172;2023-01-16T10:40:53;5.53;;;3.47;;
65172;SDS011;51758;52.218;5.172;2023-01-16T10:43:26;5.38;;;3.80;;
65172;SDS011;51758;52.218;5.172;2023-01-16T10:46:19;3.67;;;3.20;;
65172;SDS011;51758;52.218;5.172;2023-01-16T10:49:18;5.90;;;3.27;;
65172;SDS011;51758;52.218;5.172;2023-01-16T10:51:55;3.60;;;3.30;;
65172;SDS011;51758;52.218;5.172;2023-01-16T10:54:27;4.60;;;2.73;;
65172;SDS011;51758;52.218;5.172;2023-01-16T10:56:54;4.87;;;3.27;;
65172;SDS011;51758;52.218;5.172;2023-01-16T10:59:24;6.77;;;3.27;;
65172;SDS011;51758;52.218;5.172;2023-01-16T11:01:53;4.10;;;2.60;;
65172;SDS011;51758;52.218;5.172;2023-01-16T11:04:24;4.17;;;3.07;;
65172;SDS011;51758;52.218;5.172;2023-01-16T11:07:13;13.47;;;4.47;;
65172;SDS011;51758;52.218;5.172;2023-01-16T11:09:42;4.60;;;3.40;;
65172;SDS011;51758;52.218;5.172;2023-01-16T11:12:11;6.03;;;3.83;;
65172;SDS011;51758;52.218;5.172;2023-01-16T11:15:05;9.23;;;4.03;;
65172;SDS011;51758;52.218;5.172;2023-01-16T11:17:59;8.53;;;4.67;;
65172;SDS011;51758;52.218;5.172;2023-01-16T11:20:45;8.37;;;6.43;;
65172;SDS011;51758;52.218;5.172;2023-01-16T11:23:17;8.73;;;5.53;;
65172;SDS011;51758;52.218;5.172;2023-01-16T11:25:47;8.07;;;5.37;;
65172;SDS011;51758;52.218;5.172;2023-01-16T11:28:18;8.73;;;6.03;;
65172;SDS011;51758;52.218;5.172;2023-01-16T11:30:48;10.00;;;5.47;;
65172;SDS011;51758;52.218;5.172;2023-01-16T11:33:22;10.10;;;4.80;;
65172;SDS011;51758;52.218;5.172;2023-01-16T11:35:54;11.83;;;5.30;;
65172;SDS011;51758;52.218;5.172;2023-01-16T11:38:25;10.57;;;5.40;;
65172;SDS011;51758;52.218;5.172;2023-01-16T11:40:56;16.33;;;5.37;;
65172;SDS011;51758;52.218;5.172;2023-01-16T11:43:26;7.17;;;4.60;;
65172;SDS011;51758;52.218;5.172;2023-01-16T11:46:21;9.83;;;4.80;;
65172;SDS011;51758;52.218;5.172;2023-01-16T11:48:59;7.37;;;4.20;;
65172;SDS011;51758;52.218;5.172;2023-01-16T11:51:30;5.00;;;3.40;;
65172;SDS011;51758;52.218;5.172;2023-01-16T11:54:00;6.63;;;3.87;;
65172;SDS011;51758;52.218;5.172;2023-01-16T11:56:39;5.63;;;4.30;;
65172;SDS011;51758;52.218;5.172;2023-01-16T11:59:24;6.90;;;4.43;;
65172;SDS011;51758;52.218;5.172;2023-01-16T12:02:02;8.43;;;4.70;;
65172;SDS011;51758;52.218;5.172;2023-01-16T12:04:53;6.53;;;4.83;;
65172;SDS011;51758;52.218;5.172;2023-01-16T12:07:50;4.77;;;4.13;;
65172;SDS011;51758;52.218;5.172;2023-01-16T12:10:34;7.60;;;4.47;;
65172;SDS011;51758;52.218;5.172;2023-01-16T12:13:09;6.25;;;4.07;;
65172;SDS011;51758;52.218;5.172;2023-01-16T12:16:03;5.97;;;4.00;;
65172;SDS011;51758;52.218;5.172;2023-01-16T12:18:41;10.00;;;3.97;;
65172;SDS011;51758;52.218;5.172;2023-01-16T12:21:29;6.10;;;4.57;;
65172;SDS011;51758;52.218;5.172;2023-01-16T12:24:05;6.83;;;4.40;;
65172;SDS011;51758;52.218;5.172;2023-01-16T12:26:44;7.03;;;4.67;;
65172;SDS011;51758;52.218;5.172;2023-01-16T12:29:21;13.33;;;6.03;;
65172;SDS011;51758;52.218;5.172;2023-01-16T12:32:01;9.93;;;5.87;;
65172;SDS011;51758;52.218;5.172;2023-01-16T12:34:45;7.73;;;5.47;;
65172;SDS011;51758;52.218;5.172;2023-01-16T12:37:29;11.43;;;6.93;;
65172;SDS011;51758;52.218;5.172;2023-01-16T12:40:12;7.23;;;5.57;;
65172;SDS011;51758;52.218;5.172;2023-01-16T12:42:50;7.50;;;4.47;;
65172;SDS011;51758;52.218;5.172;2023-01-16T12:45:46;8.70;;;4.03;;
65172;SDS011;51758;52.218;5.172;2023-01-16T12:48:26;5.63;;;4.23;;
65172;SDS011;51758;52.218;5.172;2023-01-16T12:51:04;5.83;;;4.23;;
65172;SDS011;51758;52.218;5.172;2023-01-16T12:53:58;8.53;;;5.90;;
65172;SDS011;51758;52.218;5.172;2023-01-16T12:56:52;5.13;;;4.30;;
65172;SDS011;51758;52.218;5.172;2023-01-16T12:59:36;8.40;;;4.93;;
65172;SDS011;51758;52.218;5.172;2023-01-16T13:02:12;7.27;;;4.20;;
65172;SDS011;51758;52.218;5.172;2023-01-16T13:04:49;6.07;;;4.20;;
65172;SDS011;51758;52.218;5.172;2023-01-16T13:07:20;5.00;;;4.03;;
65172;SDS011;51758;52.218;5.172;2023-01-16T13:09:51;7.83;;;4.63;;
65172;SDS011;51758;52.218;5.172;2023-01-16T13:12:46;6.47;;;4.00;;
65172;SDS011;51758;52.218;5.172;2023-01-16T13:15:34;6.27;;;3.83;;
65172;SDS011;51758;52.218;5.172;2023-01-16T13:18:04;7.67;;;3.93;;
65172;SDS011;51758;52.218;5.172;2023-01-16T13:20:41;4.30;;;3.33;;
65172;SDS011;51758;52.218;5.172;2023-01-16T13:23:11;6.83;;;3.60;;
65172;SDS011;51758;52.218;5.172;2023-01-16T13:25:46;6.40;;;3.80;;
65172;SDS011;51758;52.218;5.172;2023-01-16T13:28:17;3.17;;;2.47;;
65172;SDS011;51758;52.218;5.172;2023-01-16T13:30:52;4.90;;;3.30;;
65172;SDS011;51758;52.218;5.172;2023-01-16T13:33:23;6.10;;;3.87;;
65172;SDS011;51758;52.218;5.172;2023-01-16T13:35:57;6.60;;;3.53;;
65172;SDS011;51758;52.218;5.172;2023-01-16T13:38:35;5.23;;;3.50;;
65172;SDS011;51758;52.218;5.172;2023-01-16T13:41:15;6.50;;;4.07;;
65172;SDS011;51758;52.218;5.172;2023-01-16T13:43:49;4.87;;;3.33;;
65172;SDS011;51758;52.218;5.172;2023-01-16T13:46:39;4.10;;;2.83;;
65172;SDS011;51758;52.218;5.172;2023-01-16T13:49:11;3.90;;;2.95;;
65172;SDS011;51758;52.218;5.172;2023-01-16T13:51:46;4.23;;;3.50;;
65172;SDS011;51758;52.218;5.172;2023-01-16T13:54:16;4.10;;;2.70;;
65172;SDS011;51758;52.218;5.172;2023-01-16T13:56:57;5.17;;;3.13;;
65172;SDS011;51758;52.218;5.172;2023-01-16T13:59:29;3.90;;;3.50;;
65172;SDS011;51758;52.218;5.172;2023-01-16T14:02:18;6.33;;;3.57;;
65172;SDS011;51758;52.218;5.172;2023-01-16T14:08:03;4.50;;;3.10;;
65172;SDS011;51758;52.218;5.172;2023-01-16T14:17:25;4.77;;;3.03;;
65172;SDS011;51758;52.218;5.172;2023-01-16T14:19:56;3.33;;;2.90;;
65172;SDS011;51758;52.218;5.172;2023-01-16T14:22:32;4.27;;;3.07;;
65172;SDS011;51758;52.218;5.172;2023-01-16T14:25:20;4.67;;;3.33;;
65172;SDS011;51758;52.218;5.172;2023-01-16T14:27:53;5.37;;;3.13;;
65172;SDS011;51758;52.218;5.172;2023-01-16T14:30:24;3.70;;;2.93;;
65172;SDS011;51758;52.218;5.172;2023-01-16T14:32:57;4.53;;;3.30;;
65172;SDS011;51758;52.218;5.172;2023-01-16T14:35:27;4.50;;;3.80;;
65172;SDS011;51758;52.218;5.172;2023-01-16T14:37:59;8.43;;;3.70;;
65172;SDS011;51758;52.218;5.172;2023-01-16T14:40:33;6.63;;;4.40;;
65172;SDS011;51758;52.218;5.172;2023-01-16T14:43:26;19.03;;;11.20;;
65172;SDS011;51758;52.218;5.172;2023-01-16T14:46:25;6.87;;;4.67;;
65172;SDS011;51758;52.218;5.172;2023-01-16T14:52:46;5.40;;;3.53;;
65172;SDS011;51758;52.218;5.172;2023-01-16T14:55:42;7.70;;;4.83;;
65172;SDS011;51758;52.218;5.172;2023-01-16T14:58:16;6.10;;;4.37;;
65172;SDS011;51758;52.218;5.172;2023-01-16T15:00:49;5.77;;;3.60;;
65172;SDS011;51758;52.218;5.172;2023-01-16T15:03:20;6.20;;;4.50;;
65172;SDS011;51758;52.218;5.172;2023-01-16T15:05:50;7.67;;;4.50;;
65172;SDS011;51758;52.218;5.172;2023-01-16T15:08:24;8.03;;;5.30;;
65172;SDS011;51758;52.218;5.172;2023-01-16T15:10:55;7.60;;;5.50;;
65172;SDS011;51758;52.218;5.172;2023-01-16T15:13:44;4.93;;;4.10;;
65172;SDS011;51758;52.218;5.172;2023-01-16T15:16:44;7.03;;;4.63;;
65172;SDS011;51758;52.218;5.172;2023-01-16T15:19:30;4.53;;;3.87;;
65172;SDS011;51758;52.218;5.172;2023-01-16T15:22:17;5.77;;;3.87;;
65172;SDS011;51758;52.218;5.172;2023-01-16T15:24:48;5.13;;;3.53;;
65172;SDS011;51758;52.218;5.172;2023-01-16T15:27:24;5.43;;;3.67;;
65172;SDS011;51758;52.218;5.172;2023-01-16T15:29:56;5.60;;;4.40;;
65172;SDS011;51758;52.218;5.172;2023-01-16T15:32:28;4.97;;;4.30;;
65172;SDS011;51758;52.218;5.172;2023-01-16T15:35:08;6.20;;;4.30;;
65172;SDS011;51758;52.218;5.172;2023-01-16T15:37:47;5.23;;;4.10;;
65172;SDS011;51758;52.218;5.172;2023-01-16T15:40:22;5.50;;;4.20;;
65172;SDS011;51758;52.218;5.172;2023-01-16T15:42:51;4.20;;;3.63;;
65172;SDS011;51758;52.218;5.172;2023-01-16T15:45:36;6.63;;;3.63;;
65172;SDS011;51758;52.218;5.172;2023-01-16T15:48:37;5.50;;;4.30;;
65172;SDS011;51758;52.218;5.172;2023-01-16T15:51:29;8.67;;;5.50;;